Time;durP1;ratioP1;P1;durP2;ratioP2;P2;SDS_P1;SDS_P2;PMS_P1;PMS_P2;Temp;Humidity;BMP_temperature;BMP_pressure;BME280_temperature;BME280_humidity;BME280_pressure;Samples;Min_cycle;Max_cycle;Signal;HPM_P1;HPM_P2
2023/03/11 00:00:59;;;;;;;8.20;4.13;;;;;;;0.87;100.00;98827.22;5061280;29;20066;-79
2023/03/11 00:03:30;;;;;;;9.38;4.15;;;;;;;0.87;100.00;98822.09;5063266;29;20369;-77
2023/03/11 00:06:01;;;;;;;10.20;4.78;;;;;;;0.83;100.00;98846.19;5072644;29;20060;-79
2023/03/11 00:08:32;;;;;;;10.02;5.00;;;;;;;0.84;100.00;98852.16;5068863;29;20115;-78
2023/03/11 00:11:02;;;;;;;11.48;5.00;;;;;;;0.81;100.00;98865.94;5073095;29;20467;-79
2023/03/11 00:13:32;;;;;;;8.63;4.55;;;;;;;0.85;100.00;98876.97;5065284;29;20382;-78
2023/03/11 00:16:03;;;;;;;11.05;5.65;;;;;;;0.84;100.00;98883.00;5061166;29;20076;-78
2023/03/11 00:18:33;;;;;;;12.30;5.72;;;;;;;0.83;100.00;98889.03;5061814;29;20575;-76
2023/03/11 00:21:04;;;;;;;10.10;4.97;;;;;;;0.81;100.00;98899.38;5061678;29;20073;-76
2023/03/11 00:23:34;;;;;;;10.38;5.50;;;;;;;0.83;100.00;98907.88;5061186;29;20108;-77
2023/03/11 00:26:05;;;;;;;9.90;4.78;;;;;;;0.86;100.00;98914.69;5061554;29;20043;-76
2023/03/11 00:28:35;;;;;;;13.35;5.78;;;;;;;0.85;100.00;98918.97;5062142;29;20538;-77
2023/03/11 00:31:05;;;;;;;7.50;3.60;;;;;;;0.81;100.00;98922.50;5062599;29;20084;-76
2023/03/11 00:33:36;;;;;;;9.02;4.50;;;;;;;0.80;100.00;98938.81;5062438;29;20091;-78
2023/03/11 00:36:06;;;;;;;8.50;4.38;;;;;;;0.81;100.00;98950.78;5060323;29;20036;-77
2023/03/11 00:38:37;;;;;;;10.13;5.50;;;;;;;0.81;100.00;98950.78;5063843;29;20036;-78
2023/03/11 00:41:07;;;;;;;10.80;5.25;;;;;;;0.77;100.00;98966.28;5069210;29;20245;-79
2023/03/11 00:43:37;;;;;;;11.02;5.10;;;;;;;0.84;100.00;98966.13;5063495;29;20035;-77
2023/03/11 00:46:08;;;;;;;12.63;4.65;;;;;;;0.77;100.00;98971.44;5063469;29;20458;-79
2023/03/11 00:48:39;;;;;;;11.52;5.82;;;;;;;0.83;100.00;98973.84;5069791;29;20036;-77
2023/03/11 00:51:13;;;;;;;11.90;5.80;;;;;;;0.84;100.00;98976.41;5063904;29;20380;-79
2023/03/11 00:53:44;;;;;;;10.13;5.25;;;;;;;0.82;100.00;98990.16;5062266;29;20032;-78
2023/03/11 00:56:15;;;;;;;9.88;5.65;;;;;;;0.76;100.00;98991.13;5061882;29;20471;-78
2023/03/11 00:58:46;;;;;;;13.38;5.90;;;;;;;0.80;100.00;99000.50;5063294;29;20033;-78
2023/03/11 01:01:18;;;;;;;12.25;6.13;;;;;;;0.76;100.00;99009.13;5062651;29;20112;-78
2023/03/11 01:03:49;;;;;;;11.13;5.57;;;;;;;0.81;100.00;99017.63;5063356;29;20020;-77
2023/03/11 01:06:20;;;;;;;15.65;6.25;;;;;;;0.77;100.00;99018.56;5063625;29;20110;-77
2023/03/11 01:08:50;;;;;;;11.63;6.63;;;;;;;0.78;100.00;99027.97;5046706;29;20031;-77
2023/03/11 01:11:20;;;;;;;13.73;6.15;;;;;;;0.81;100.00;99037.31;5071859;29;20032;-77
2023/03/11 01:13:51;;;;;;;11.57;6.15;;;;;;;0.81;100.00;99042.44;5064698;29;20112;-79
2023/03/11 01:16:21;;;;;;;12.93;6.32;;;;;;;0.80;100.00;99049.34;5067623;29;20058;-78
2023/03/11 01:18:52;;;;;;;12.75;6.93;;;;;;;0.75;100.00;99058.03;5106449;23;20457;-75
2023/03/11 01:21:23;;;;;;;11.48;6.35;;;;;;;0.79;100.00;99062.22;5123476;29;20027;-74
2023/03/11 01:23:53;;;;;;;10.88;6.15;;;;;;;0.82;100.00;99078.44;5114408;29;20070;-75
2023/03/11 01:26:23;;;;;;;13.35;6.60;;;;;;;0.82;100.00;99073.28;5102516;29;20110;-75
2023/03/11 01:28:54;;;;;;;13.73;6.40;;;;;;;0.83;100.00;99086.97;5103509;29;20023;-74
2023/03/11 01:31:24;;;;;;;12.30;6.70;;;;;;;0.77;100.00;99093.09;5102479;29;20106;-74
2023/03/11 01:33:54;;;;;;;13.88;5.93;;;;;;;0.79;100.00;99106.78;5102571;29;20030;-75
2023/03/11 01:36:25;;;;;;;12.65;5.95;;;;;;;0.78;100.00;99105.09;5085987;29;20486;-75
2023/03/11 01:38:55;;;;;;;14.50;6.97;;;;;;;0.74;100.00;99102.59;5102227;29;20032;-74
2023/03/11 01:41:25;;;;;;;13.70;6.10;;;;;;;0.81;100.00;99112.72;5121913;29;20031;-73
2023/03/11 01:43:55;;;;;;;15.10;7.20;;;;;;;0.78;100.00;99123.06;5123205;29;20469;-74
2023/03/11 01:46:52;;;;;;;14.77;6.95;;;;;;;0.79;100.00;99142.75;5123560;29;20031;-74
2023/03/11 01:49:22;;;;;;;12.13;6.25;;;;;;;0.80;100.00;99141.88;5054950;29;20118;-74
2023/03/11 01:51:56;;;;;;;12.23;6.40;;;;;;;0.80;100.00;99157.31;5119610;29;20042;-75
2023/03/11 01:54:30;;;;;;;14.18;7.40;;;;;;;0.83;100.00;99161.50;5083184;29;20537;-75
2023/03/11 01:57:05;;;;;;;15.77;7.07;;;;;;;0.79;100.00;99163.31;5084217;29;20036;-74
2023/03/11 01:59:40;;;;;;;8.93;4.82;;;;;;;0.78;100.00;99171.06;5088101;29;20494;-74
2023/03/11 02:02:17;;;;;;;13.05;6.22;;;;;;;0.78;100.00;99178.75;5102604;29;20028;-73
2023/03/11 02:04:49;;;;;;;12.05;6.55;;;;;;;0.77;100.00;99180.50;5103061;29;20036;-74
2023/03/11 02:07:20;;;;;;;14.00;7.43;;;;;;;0.77;100.00;99184.78;5106054;29;20094;-74
2023/03/11 02:09:50;;;;;;;14.73;6.78;;;;;;;0.81;100.00;99189.84;5116384;29;20024;-74
2023/03/11 02:12:21;;;;;;;18.13;8.15;;;;;;;0.80;100.00;99195.00;5110574;29;20028;-74
2023/03/11 02:14:53;;;;;;;14.50;7.82;;;;;;;0.78;100.00;99207.91;5108691;29;20102;-74
2023/03/11 02:17:23;;;;;;;16.80;8.20;;;;;;;0.80;100.00;99211.28;5115412;29;20033;-73
2023/03/11 02:20:04;;;;;;;15.15;7.80;;;;;;;0.87;100.00;99212.84;5106429;29;20498;-74
2023/03/11 02:22:35;;;;;;;12.63;6.50;;;;;;;0.86;100.00;99224.00;5106458;29;20107;-74
2023/03/11 02:25:29;;;;;;;12.63;5.63;;;;;;;0.87;100.00;99228.28;5105160;29;20455;-75
2023/03/11 02:28:04;;;;;;;14.18;6.90;;;;;;;0.83;100.00;99236.94;5105889;29;20061;-74
2023/03/11 02:30:35;;;;;;;14.02;6.90;;;;;;;0.86;100.00;99236.03;5106120;29;20019;-75
2023/03/11 02:33:05;;;;;;;13.20;6.88;;;;;;;0.86;100.00;99231.72;5106188;29;20047;-74
2023/03/11 02:35:36;;;;;;;16.58;6.78;;;;;;;0.86;100.00;99239.44;5120779;29;20035;-74
2023/03/11 02:38:06;;;;;;;12.48;6.20;;;;;;;0.83;100.00;99242.06;5107211;29;20112;-75
2023/03/11 02:40:43;;;;;;;15.45;7.05;;;;;;;0.77;100.00;99252.47;5119711;28;20028;-74
2023/03/11 02:43:18;;;;;;;12.88;6.45;;;;;;;0.87;100.00;99248.84;5104515;29;20113;-73
2023/03/11 02:45:49;;;;;;;12.50;6.30;;;;;;;0.93;100.00;99248.72;5120174;29;20059;-74
2023/03/11 02:48:20;;;;;;;12.85;6.25;;;;;;;0.91;100.00;99250.47;5112709;29;20051;-73
2023/03/11 02:50:51;;;;;;;13.38;6.43;;;;;;;0.87;100.00;99264.28;5104364;29;20114;-73
2023/03/11 02:53:21;;;;;;;11.35;5.90;;;;;;;0.84;100.00;99254.03;5104699;29;20111;-73
2023/03/11 02:55:51;;;;;;;11.60;6.07;;;;;;;0.80;100.00;99256.69;5105404;29;20034;-73
2023/03/11 02:58:21;;;;;;;12.88;5.93;;;;;;;0.82;100.00;99271.22;5112813;29;20046;-73
2023/03/11 03:00:52;;;;;;;11.30;5.82;;;;;;;0.84;100.00;99279.75;5108118;29;20027;-73
2023/03/11 03:03:22;;;;;;;11.80;6.10;;;;;;;0.85;100.00;99281.44;5121228;29;20028;-73
2023/03/11 03:05:52;;;;;;;13.25;5.70;;;;;;;0.85;100.00;99290.88;5105892;29;20456;-73
2023/03/11 03:08:23;;;;;;;13.85;5.78;;;;;;;0.79;100.00;99299.56;5115245;29;20510;-73
2023/03/11 03:10:53;;;;;;;12.15;6.20;;;;;;;0.77;100.00;99303.88;5125203;29;20066;-73
2023/03/11 03:13:23;;;;;;;9.73;4.70;;;;;;;0.80;100.00;99296.13;5124108;29;20031;-73
2023/03/11 03:15:54;;;;;;;10.60;5.72;;;;;;;0.82;100.00;99298.66;5121674;29;20033;-74
2023/03/11 03:18:25;;;;;;;11.05;5.40;;;;;;;0.70;100.00;99306.59;5116198;29;20065;-73
2023/03/11 03:20:55;;;;;;;9.50;5.13;;;;;;;0.71;100.00;99310.84;5125287;29;20485;-73
2023/03/11 03:23:25;;;;;;;10.13;5.35;;;;;;;0.75;100.00;99313.31;5113150;29;20023;-73
2023/03/11 03:25:56;;;;;;;8.98;4.63;;;;;;;0.70;100.00;99320.28;5103352;29;20079;-73
2023/03/11 03:28:26;;;;;;;9.32;4.82;;;;;;;0.70;100.00;99322.00;5104094;29;20028;-73
2023/03/11 03:31:04;;;;;;;8.63;3.53;;;;;;;0.72;100.00;99333.09;5108100;29;20040;-72
2023/03/11 03:33:34;;;;;;;7.47;3.97;;;;;;;0.69;100.00;99331.41;5110518;29;20516;-72
2023/03/11 03:36:10;;;;;;;7.40;4.05;;;;;;;0.71;100.00;99341.69;5124444;29;20031;-72
2023/03/11 03:38:41;;;;;;;9.75;3.75;;;;;;;0.72;100.00;99344.22;5114473;29;20039;-72
2023/03/11 03:41:14;;;;;;;6.50;3.65;;;;;;;0.65;100.00;99340.06;5124564;29;20068;-71
2023/03/11 03:43:45;;;;;;;8.25;3.30;;;;;;;0.70;100.00;99348.53;5119562;29;20023;-72
2023/03/11 03:46:15;;;;;;;7.18;3.60;;;;;;;0.64;100.00;99352.94;5121123;29;20118;-72
2023/03/11 03:48:46;;;;;;;6.78;3.35;;;;;;;0.68;100.00;99357.13;5111315;29;20042;-73
2023/03/11 03:51:17;;;;;;;8.70;3.55;;;;;;;0.70;100.00;99373.41;5106873;29;20035;-72
2023/03/11 03:53:47;;;;;;;8.80;3.60;;;;;;;0.68;100.00;99378.56;5101220;28;20455;-72
2023/03/11 03:56:18;;;;;;;7.68;3.60;;;;;;;0.73;100.00;99378.50;5110439;29;20058;-73
2023/03/11 03:58:48;;;;;;;9.45;3.80;;;;;;;0.67;100.00;99388.84;5116033;29;20020;-72
2023/03/11 04:01:19;;;;;;;9.32;3.92;;;;;;;0.67;100.00;99388.84;5093323;29;20060;-73
2023/03/11 04:03:49;;;;;;;8.75;3.63;;;;;;;0.70;100.00;99384.53;5112060;29;20477;-72
2023/03/11 04:06:22;;;;;;;9.43;3.97;;;;;;;0.70;100.00;99387.09;5111725;29;20036;-72
2023/03/11 04:08:53;;;;;;;7.10;3.85;;;;;;;0.71;100.00;99396.50;5107109;29;20054;-72
2023/03/11 04:11:23;;;;;;;8.13;4.30;;;;;;;0.76;100.00;99397.28;5122078;29;20549;-71
2023/03/11 04:13:54;;;;;;;6.43;3.70;;;;;;;0.75;100.00;99399.88;5122941;29;20126;-73
2023/03/11 04:16:24;;;;;;;6.05;3.70;;;;;;;0.55;100.00;99400.16;5116973;29;20054;-73
2023/03/11 04:18:54;;;;;;;7.47;4.00;;;;;;;0.65;100.00;99406.88;5104897;29;20034;-73
2023/03/11 04:21:25;;;;;;;8.63;3.70;;;;;;;0.75;100.00;99407.59;5101250;29;20027;-72
2023/03/11 04:23:55;;;;;;;8.52;3.50;;;;;;;0.66;100.00;99421.44;5102569;29;20102;-73
2023/03/11 04:26:27;;;;;;;6.78;3.30;;;;;;;0.70;100.00;99420.50;5104626;29;20462;-73
2023/03/11 04:28:57;;;;;;;7.15;3.10;;;;;;;0.72;100.00;99423.91;5104229;29;20118;-72
2023/03/11 04:31:27;;;;;;;5.38;3.08;;;;;;;0.64;100.00;99436.03;5106926;29;20118;-71
2023/03/11 04:33:58;;;;;;;10.38;3.10;;;;;;;0.60;100.00;99442.09;5106665;29;20556;-73
2023/03/11 04:36:28;;;;;;;6.10;2.78;;;;;;;0.72;100.00;99439.31;5118785;28;20028;-73
2023/03/11 04:38:58;;;;;;;6.10;3.17;;;;;;;0.71;100.00;99431.66;5114529;29;20287;-73
2023/03/11 04:41:29;;;;;;;8.35;2.97;;;;;;;0.67;100.00;99435.13;5113743;29;20499;-73
2023/03/11 04:43:59;;;;;;;7.35;2.95;;;;;;;0.69;100.00;99447.09;5109707;29;20043;-73
2023/03/11 04:46:29;;;;;;;7.75;2.83;;;;;;;0.69;100.00;99447.09;5117869;29;20030;-73
2023/03/11 04:49:00;;;;;;;4.35;2.70;;;;;;;0.66;100.00;99452.28;5117010;29;20039;-73
2023/03/11 04:51:30;;;;;;;8.65;3.17;;;;;;;0.68;100.00;99453.09;5107342;29;20384;-73
2023/03/11 04:54:00;;;;;;;9.48;3.20;;;;;;;0.73;100.00;99451.31;5113805;28;20139;-73
2023/03/11 04:56:31;;;;;;;9.02;3.13;;;;;;;0.65;100.00;99457.44;5113194;29;20457;-73
2023/03/11 04:59:01;;;;;;;5.75;2.80;;;;;;;0.66;100.00;99465.13;5107245;29;20046;-73
2023/03/11 05:01:31;;;;;;;5.90;2.85;;;;;;;0.62;100.00;99467.75;5121974;29;20387;-72
2023/03/11 05:04:02;;;;;;;7.63;3.13;;;;;;;0.61;100.00;99476.34;5114307;29;20449;-73
2023/03/11 05:06:32;;;;;;;9.15;2.75;;;;;;;0.63;100.00;99480.59;5123375;29;20035;-73
2023/03/11 05:09:03;;;;;;;7.97;2.90;;;;;;;0.69;100.00;99480.50;5118117;29;20035;-73
2023/03/11 05:11:34;;;;;;;5.32;2.70;;;;;;;0.68;100.00;99483.94;5087577;29;20036;-73
2023/03/11 05:14:04;;;;;;;5.78;2.72;;;;;;;0.67;100.00;99487.38;5082804;29;20039;-73
2023/03/11 05:16:35;;;;;;;5.13;2.70;;;;;;;0.60;100.00;99493.50;5097076;29;20118;-73
2023/03/11 05:19:29;;;;;;;5.38;2.67;;;;;;;0.62;100.00;99503.75;5101107;29;20039;-73
2023/03/11 05:21:56;;;;;;;4.72;2.30;;;;;;;0.59;100.00;99509.75;5102830;29;20036;-73
2023/03/11 05:24:27;;;;;;;8.98;3.78;;;;;;;0.62;100.00;99514.00;5105833;29;20549;-73
2023/03/11 05:26:58;;;;;;;5.88;2.90;;;;;;;0.62;100.00;99519.16;5108516;29;20488;-73
2023/03/11 05:29:29;;;;;;;6.40;3.08;;;;;;;0.55;100.00;99520.94;5102707;29;20035;-73
2023/03/11 05:31:59;;;;;;;11.77;4.50;;;;;;;0.53;100.00;99525.25;5102367;29;20205;-73
2023/03/11 05:34:30;;;;;;;24.35;8.80;;;;;;;0.54;100.00;99526.97;5101291;29;20032;-73
2023/03/11 05:37:00;;;;;;;16.65;6.85;;;;;;;0.59;100.00;99535.47;5115350;29;20030;-73
2023/03/11 05:39:31;;;;;;;9.45;4.10;;;;;;;0.56;100.00;99535.50;5110319;29;20896;-73
2023/03/11 05:42:01;;;;;;;7.93;3.58;;;;;;;0.59;100.00;99540.59;5122505;29;20058;-73
2023/03/11 05:44:32;;;;;;;6.72;3.55;;;;;;;0.60;100.00;99546.59;5092781;29;20075;-73
2023/03/11 05:47:02;;;;;;;7.80;3.92;;;;;;;0.63;100.00;99556.84;5112236;29;20086;-73
2023/03/11 05:49:32;;;;;;;10.27;4.15;;;;;;;0.63;100.00;99564.53;5125801;28;20106;-72
2023/03/11 05:52:03;;;;;;;6.53;3.65;;;;;;;0.59;100.00;99561.16;5099426;29;20028;-72
2023/03/11 05:54:33;;;;;;;6.63;4.22;;;;;;;0.71;100.00;99562.75;5115224;29;20374;-73
2023/03/11 05:57:04;;;;;;;6.75;3.22;;;;;;;0.68;100.00;99565.34;5117526;29;20063;-73
2023/03/11 05:59:36;;;;;;;8.23;2.78;;;;;;;0.54;100.00;99568.06;5112357;29;20040;-73
2023/03/11 06:02:06;;;;;;;7.30;3.40;;;;;;;0.64;100.00;99574.81;5120123;29;20061;-73
2023/03/11 06:04:37;;;;;;;4.95;2.80;;;;;;;0.71;100.00;99570.47;5125926;29;20059;-73
2023/03/11 06:07:07;;;;;;;6.82;3.22;;;;;;;0.57;100.00;99575.75;5111730;29;20028;-73
2023/03/11 06:09:37;;;;;;;9.73;3.80;;;;;;;0.68;100.00;99578.19;5106518;29;20087;-73
2023/03/11 06:12:08;;;;;;;12.73;3.78;;;;;;;0.53;100.00;99575.81;5105741;29;20020;-72
2023/03/11 06:14:38;;;;;;;5.78;3.00;;;;;;;0.59;100.00;99574.00;5105746;29;20118;-73
2023/03/11 06:17:08;;;;;;;9.80;4.55;;;;;;;0.67;100.00;99590.19;5122861;29;20038;-73
2023/03/11 06:19:39;;;;;;;9.68;3.28;;;;;;;0.80;100.00;99591.75;5113879;29;20035;-73
2023/03/11 06:22:09;;;;;;;8.77;4.78;;;;;;;0.72;100.00;99593.56;5114850;29;20053;-72
2023/03/11 06:24:39;;;;;;;8.60;3.38;;;;;;;0.64;100.00;99599.66;5124133;29;20023;-73
2023/03/11 06:27:10;;;;;;;9.45;4.22;;;;;;;0.76;100.00;99602.09;5117950;29;20035;-72
2023/03/11 06:29:40;;;;;;;9.13;3.90;;;;;;;0.71;100.00;99609.03;5107768;29;20441;-73
2023/03/11 06:32:10;;;;;;;10.57;3.90;;;;;;;0.74;100.00;99611.53;5106450;29;20043;-73
2023/03/11 06:34:41;;;;;;;11.15;4.07;;;;;;;0.79;100.00;99618.34;5104886;29;20057;-73
2023/03/11 06:37:11;;;;;;;10.75;3.53;;;;;;;0.86;100.00;99622.53;5117330;29;20035;-74
2023/03/11 06:39:41;;;;;;;8.02;2.75;;;;;;;0.84;100.00;99638.84;5119054;28;20118;-73
2023/03/11 06:42:12;;;;;;;16.40;3.65;;;;;;;0.89;100.00;99640.47;5123917;29;20038;-73
2023/03/11 06:44:42;;;;;;;10.52;4.05;;;;;;;0.80;100.00;99643.19;5114954;28;20097;-74
2023/03/11 06:47:12;;;;;;;5.57;3.22;;;;;;;0.73;100.00;99659.53;5123805;29;20035;-72
2023/03/11 06:49:43;;;;;;;12.27;3.58;;;;;;;0.93;100.00;99660.13;5125311;29;20031;-72
2023/03/11 06:52:13;;;;;;;7.03;2.50;;;;;;;0.89;100.00;99668.78;5122231;29;20074;-72
2023/03/11 06:54:44;;;;;;;7.68;2.70;;;;;;;0.85;100.00;99667.09;5119545;29;20444;-72
2023/03/11 06:57:15;;;;;;;5.38;2.35;;;;;;;0.83;100.00;99684.28;5107712;29;20035;-72
2023/03/11 06:59:45;;;;;;;4.82;2.65;;;;;;;0.90;100.00;99685.06;5118940;28;20144;-72
2023/03/11 07:02:16;;;;;;;4.80;2.30;;;;;;;0.84;100.00;99679.97;5104691;29;20219;-73
2023/03/11 07:04:49;;;;;;;6.32;2.30;;;;;;;0.80;100.00;99689.47;5107421;29;20524;-72
2023/03/11 07:07:20;;;;;;;8.07;2.58;;;;;;;0.83;100.00;99694.56;5114636;28;20552;-72
2023/03/11 07:09:54;;;;;;;8.52;2.60;;;;;;;0.91;100.00;99703.03;5105632;29;20100;-72
2023/03/11 07:12:24;;;;;;;9.02;3.13;;;;;;;0.90;100.00;99701.31;5108049;29;20031;-72
2023/03/11 07:14:58;;;;;;;5.68;2.75;;;;;;;0.91;100.00;99708.16;5110396;29;20379;-72
2023/03/11 07:17:28;;;;;;;8.82;3.03;;;;;;;0.90;100.00;99721.06;5100093;29;20070;-72
2023/03/11 07:19:59;;;;;;;11.32;3.67;;;;;;;0.90;100.00;99723.63;5125116;23;20071;-76
2023/03/11 07:22:29;;;;;;;10.02;2.53;;;;;;;0.92;100.00;99720.16;5085259;29;20030;-75
2023/03/11 07:24:59;;;;;;;6.95;2.17;;;;;;;0.88;100.00;99728.78;5100220;29;20036;-75
2023/03/11 07:27:30;;;;;;;5.28;2.10;;;;;;;0.95;100.00;99738.16;5100226;29;20027;-76
2023/03/11 07:30:01;;;;;;;5.93;2.72;;;;;;;0.91;100.00;99738.19;5090303;29;20032;-75
2023/03/11 07:32:32;;;;;;;4.15;2.55;;;;;;;0.92;100.00;99740.72;5072760;29;20068;-75
2023/03/11 07:35:02;;;;;;;7.07;2.65;;;;;;;1.00;100.00;99748.38;5080469;29;20840;-76
2023/03/11 07:37:32;;;;;;;7.40;2.60;;;;;;;0.97;100.00;99751.84;5072135;29;20040;-75
2023/03/11 07:40:03;;;;;;;5.25;2.30;;;;;;;1.07;100.00;99756.00;5092401;29;20157;-77
2023/03/11 07:42:33;;;;;;;8.43;3.15;;;;;;;0.97;100.00;99763.84;5067094;29;20028;-76
2023/03/11 07:45:04;;;;;;;5.85;2.60;;;;;;;1.07;100.00;99766.28;5084887;29;20066;-75
2023/03/11 07:47:34;;;;;;;8.52;2.90;;;;;;;1.19;100.00;99771.31;5087094;29;20083;-76
2023/03/11 07:50:05;;;;;;;7.38;3.17;;;;;;;1.17;100.00;99778.19;5090448;29;20031;-76
2023/03/11 07:52:35;;;;;;;6.68;2.50;;;;;;;1.13;100.00;99781.69;5081213;29;20498;-75
2023/03/11 07:55:06;;;;;;;6.82;2.60;;;;;;;1.07;100.00;99786.88;5087105;29;20055;-75
2023/03/11 07:57:36;;;;;;;9.13;3.50;;;;;;;1.09;100.00;99790.28;5081357;29;20043;-76
2023/03/11 08:00:07;;;;;;;7.55;3.10;;;;;;;1.15;100.00;99790.22;5081289;29;20063;-75
2023/03/11 08:02:38;;;;;;;6.00;3.08;;;;;;;1.24;100.00;99792.69;5080583;29;20427;-73
2023/03/11 08:05:09;;;;;;;11.68;3.42;;;;;;;1.22;100.00;99791.84;5083287;29;20095;-76
2023/03/11 08:07:39;;;;;;;7.35;2.65;;;;;;;1.25;100.00;99799.53;5077827;29;20043;-74
2023/03/11 08:10:10;;;;;;;6.07;2.25;;;;;;;1.17;100.00;99803.91;5085632;29;20024;-75
2023/03/11 08:12:40;;;;;;;4.90;2.05;;;;;;;1.33;100.00;99807.16;5086193;29;20027;-75
2023/03/11 08:15:11;;;;;;;6.78;2.15;;;;;;;1.33;100.00;99813.19;5091798;29;20028;-75
2023/03/11 08:17:41;;;;;;;10.45;2.20;;;;;;;1.25;100.00;99817.53;5094231;29;20406;-77
2023/03/11 08:20:11;;;;;;;8.73;2.50;;;;;;;1.40;100.00;99817.38;5083292;29;20031;-77
2023/03/11 08:22:42;;;;;;;8.30;2.45;;;;;;;1.48;100.00;99825.88;5071042;29;20512;-75
2023/03/11 08:25:12;;;;;;;9.02;2.65;;;;;;;1.36;100.00;99836.31;5082448;29;20036;-75
2023/03/11 08:27:42;;;;;;;6.57;2.50;;;;;;;1.42;100.00;99841.38;5068874;29;20068;-76
2023/03/11 08:30:13;;;;;;;6.38;2.85;;;;;;;1.45;100.00;99845.66;5086326;29;20040;-75
2023/03/11 08:32:43;;;;;;;5.78;2.80;;;;;;;1.51;100.00;99856.72;5086526;29;20028;-75
2023/03/11 08:35:15;;;;;;;7.25;3.22;;;;;;;1.38;100.00;99854.31;5065834;29;20032;-74
2023/03/11 08:37:45;;;;;;;11.73;3.15;;;;;;;1.46;100.00;99860.22;5087667;29;20521;-75
2023/03/11 08:40:15;;;;;;;6.95;2.55;;;;;;;1.49;100.00;99866.19;5070155;29;20031;-75
2023/03/11 08:42:46;;;;;;;6.00;2.95;;;;;;;1.40;100.00;99868.84;5079518;29;20028;-75
2023/03/11 08:45:16;;;;;;;10.27;2.60;;;;;;;1.53;100.00;99875.59;5086375;29;20035;-76
2023/03/11 08:47:46;;;;;;;6.88;2.60;;;;;;;1.51;100.00;99879.03;5082214;29;20180;-75
2023/03/11 08:50:18;;;;;;;6.32;3.10;;;;;;;1.57;100.00;99882.41;5084281;29;20413;-75
2023/03/11 08:52:48;;;;;;;7.45;3.00;;;;;;;1.52;100.00;99888.47;5083522;29;20405;-75
2023/03/11 08:55:23;;;;;;;12.35;3.50;;;;;;;1.40;100.00;99889.44;5081259;29;20036;-75
2023/03/11 08:57:54;;;;;;;10.25;3.50;;;;;;;1.56;100.00;99888.41;5088508;29;20534;-76
2023/03/11 09:00:25;;;;;;;9.25;3.50;;;;;;;1.61;100.00;99899.50;5072734;29;20032;-75
2023/03/11 09:02:55;;;;;;;6.68;2.97;;;;;;;1.71;100.00;99901.13;5087176;29;20032;-75
2023/03/11 09:05:26;;;;;;;10.15;3.65;;;;;;;1.63;100.00;99908.09;5090164;29;20110;-75
2023/03/11 09:07:56;;;;;;;11.77;4.90;;;;;;;1.61;100.00;99908.97;5083233;29;20429;-76
2023/03/11 09:10:26;;;;;;;12.50;4.38;;;;;;;1.68;100.00;99915.75;5086447;29;20028;-76
2023/03/11 09:12:57;;;;;;;13.93;5.97;;;;;;;1.57;100.00;99915.84;5089999;29;20028;-75
2023/03/11 09:15:27;;;;;;;9.55;4.68;;;;;;;1.74;100.00;99921.69;5077693;29;20035;-75
2023/03/11 09:17:58;;;;;;;7.68;3.75;;;;;;;1.71;100.00;99929.44;5077608;29;20127;-75
2023/03/11 09:20:28;;;;;;;10.13;4.07;;;;;;;1.82;100.00;99936.19;5084119;29;20020;-75
2023/03/11 09:22:59;;;;;;;10.40;3.97;;;;;;;1.96;100.00;99933.47;5083592;29;20036;-76
2023/03/11 09:25:29;;;;;;;11.68;3.85;;;;;;;2.05;100.00;99941.94;5083421;29;20028;-75
2023/03/11 09:27:59;;;;;;;9.18;4.18;;;;;;;2.07;100.00;99940.19;5090291;29;20395;-77
2023/03/11 09:30:30;;;;;;;9.25;3.75;;;;;;;2.52;100.00;99942.19;5094702;29;20036;-75
2023/03/11 09:33:00;;;;;;;8.10;3.90;;;;;;;3.14;100.00;99936.94;5097500;29;20028;-75
2023/03/11 09:35:31;;;;;;;6.82;3.13;;;;;;;3.21;100.00;99940.28;5093994;29;20331;-75
2023/03/11 09:38:01;;;;;;;6.60;3.38;;;;;;;3.65;100.00;99949.81;5084456;29;20067;-75
2023/03/11 09:40:57;;;;;;;5.45;2.92;;;;;;;3.46;100.00;99945.00;5089020;29;20046;-75
2023/03/11 09:43:45;;;;;;;;;;;;;;;3.51;100.00;99944.94;5066485;29;20042;-75
2023/03/11 09:46:49;;;;;;;7.65;2.90;;;;;;;3.77;100.00;99949.59;5074767;29;19938;-77
2023/03/11 09:49:31;;;;;;;6.32;2.50;;;;;;;3.63;100.00;99961.91;5097952;29;20423;-76
2023/03/11 09:52:12;;;;;;;6.53;2.97;;;;;;;3.55;100.00;99965.50;5087757;29;20044;-77
2023/03/11 09:54:47;;;;;;;5.38;2.60;;;;;;;3.29;100.00;99969.41;5085878;29;20530;-76
2023/03/11 09:57:23;;;;;;;12.15;2.88;;;;;;;3.34;100.00;99973.63;5086569;29;20387;-74
2023/03/11 09:59:54;;;;;;;6.78;2.47;;;;;;;3.12;100.00;99977.41;5073252;29;20113;-76
2023/03/11 10:02:26;;;;;;;6.00;3.00;;;;;;;3.03;100.00;99976.72;5083837;29;20127;-75
2023/03/11 10:05:07;;;;;;;4.63;2.53;;;;;;;2.78;100.00;99986.53;5078070;29;20071;-75
2023/03/11 10:07:45;;;;;;;5.60;2.90;;;;;;;2.87;100.00;99990.72;5085373;29;20479;-76
2023/03/11 10:10:17;;;;;;;9.65;3.03;;;;;;;2.99;100.00;99980.22;5094252;29;20111;-76
2023/03/11 10:13:02;;;;;;;9.90;3.47;;;;;;;3.38;100.00;99985.59;5083412;29;20506;-76
2023/03/11 10:15:50;;;;;;;6.43;3.08;;;;;;;3.18;100.00;99990.22;5085764;29;20047;-76
2023/03/11 10:18:25;;;;;;;6.75;2.75;;;;;;;3.20;100.00;99992.78;5087419;29;20035;-76
2023/03/11 10:21:06;;;;;;;12.40;3.38;;;;;;;3.55;100.00;99993.06;5093124;29;20035;-73
2023/03/11 10:23:55;;;;;;;6.47;3.03;;;;;;;3.56;100.00;99994.78;5085980;29;20052;-75
2023/03/11 10:26:46;;;;;;;8.77;3.38;;;;;;;3.59;100.00;99991.25;5090394;29;20592;-76
2023/03/11 10:29:26;;;;;;;6.97;3.83;;;;;;;3.60;100.00;100000.72;5087921;29;20040;-75
2023/03/11 10:32:10;;;;;;;8.57;2.88;;;;;;;3.51;100.00;100009.50;5082892;29;20431;-75
2023/03/11 10:34:50;;;;;;;7.50;2.67;;;;;;;3.43;100.00;100013.94;5084251;29;20032;-75
2023/03/11 10:37:32;;;;;;;10.95;3.70;;;;;;;3.74;100.00;100014.25;5084920;29;20070;-75
2023/03/11 10:40:44;;;;;;;8.15;3.08;;;;;;;3.53;100.00;100021.50;5069076;29;20055;-74
2023/03/11 10:43:27;;;;;;;8.45;3.17;;;;;;;3.53;100.00;100010.34;5058770;29;20033;-76
2023/03/11 10:45:58;;;;;;;12.57;4.97;;;;;;;3.31;100.00;100012.41;5060200;29;20171;-76
2023/03/11 10:48:28;;;;;;;5.80;3.00;;;;;;;3.29;100.00;100018.44;5075879;29;20040;-74
2023/03/11 10:51:10;;;;;;;9.52;3.05;;;;;;;3.35;100.00;100011.47;5084691;29;20177;-75
2023/03/11 10:54:01;;;;;;;5.57;2.78;;;;;;;3.59;100.00;100005.91;5078617;29;20029;-74
2023/03/11 10:56:32;;;;;;;5.90;3.10;;;;;;;3.81;100.00;100013.25;5080355;29;20028;-74
2023/03/11 10:59:17;;;;;;;8.18;3.53;;;;;;;3.84;100.00;100022.69;5066979;29;20054;-75
2023/03/11 11:01:59;;;;;;;7.73;3.00;;;;;;;3.99;100.00;100022.41;5087390;29;20087;-74
2023/03/11 11:04:38;;;;;;;6.75;3.13;;;;;;;4.18;100.00;100028.97;5091887;29;20036;-74
2023/03/11 11:07:28;;;;;;;8.27;2.53;;;;;;;4.18;100.00;100022.06;5090509;29;20166;-75
2023/03/11 11:10:26;;;;;;;5.35;2.40;;;;;;;3.82;99.18;100024.44;5078089;29;20516;-74
2023/03/11 11:13:02;;;;;;;5.63;2.33;;;;;;;3.98;100.00;100033.66;5068534;29;20131;-76
2023/03/11 11:15:39;;;;;;;5.63;2.58;;;;;;;4.05;99.50;100022.31;5092748;29;20032;-74
2023/03/11 11:18:21;;;;;;;5.40;2.00;;;;;;;3.84;99.29;100025.28;5090507;29;20194;-74
2023/03/11 11:20:55;;;;;;;8.23;2.75;;;;;;;3.68;99.38;100032.44;5089174;29;20114;-74
2023/03/11 11:23:31;;;;;;;6.47;2.20;;;;;;;3.68;98.80;100040.19;5081343;29;20024;-74
2023/03/11 11:26:07;;;;;;;8.10;1.98;;;;;;;3.84;99.37;100027.84;5077394;29;20091;-73
2023/03/11 11:28:38;;;;;;;3.53;1.80;;;;;;;3.79;96.23;100027.09;5089429;29;20039;-74
2023/03/11 11:31:25;;;;;;;6.57;1.90;;;;;;;4.16;97.87;100026.38;5099868;29;20023;-75
2023/03/11 11:33:56;;;;;;;3.78;2.03;;;;;;;3.99;95.96;100033.59;5090801;29;20055;-75
2023/03/11 11:36:34;;;;;;;3.25;1.88;;;;;;;4.00;95.93;100029.28;5083637;29;20108;-75
2023/03/11 11:39:16;;;;;;;5.10;2.20;;;;;;;3.96;96.34;100033.66;5094525;29;20233;-74
2023/03/11 11:41:48;;;;;;;4.18;1.75;;;;;;;3.91;95.86;100032.03;5091229;29;20435;-74
2023/03/11 11:44:21;;;;;;;6.38;2.58;;;;;;;3.74;95.14;100037.50;5087499;29;20023;-74
2023/03/11 11:46:59;;;;;;;5.68;2.00;;;;;;;3.46;93.24;100043.16;5092545;29;20110;-74
2023/03/11 11:49:33;;;;;;;6.75;3.00;;;;;;;3.29;94.02;100042.56;5077032;29;20106;-74
2023/03/11 11:52:17;;;;;;;12.02;4.07;;;;;;;3.36;94.75;100048.47;5068173;29;20050;-75
2023/03/11 11:55:01;;;;;;;6.30;2.53;;;;;;;3.49;93.94;100043.09;5083869;29;20504;-74